Time;durP1;ratioP1;P1;durP2;ratioP2;P2;SDS_P1;SDS_P2;PMS_P1;PMS_P2;Temp;Humidity;BMP_temperature;BMP_pressure;BME280_temperature;BME280_humidity;BME280_pressure;Samples;Min_cycle;Max_cycle;Signal;HPM_P1;HPM_P2
2022/09/20 00:01:19;;;;;;;2.02;1.10;;;;;;;23.93;35.54;100519.13;1685645;83;21084;-79
2022/09/20 00:03:47;;;;;;;2.17;1.20;;;;;;;23.91;35.56;100528.37;1704935;82;21063;-79
2022/09/20 00:06:16;;;;;;;2.25;1.30;;;;;;;23.92;35.60;100531.40;1715352;83;21558;-78
2022/09/20 00:08:48;;;;;;;2.00;1.07;;;;;;;23.92;35.63;100528.62;1766578;80;21438;-78
2022/09/20 00:11:17;;;;;;;2.05;1.32;;;;;;;23.93;35.67;100533.03;1776845;80;21078;-79
2022/09/20 00:13:45;;;;;;;2.08;1.57;;;;;;;23.90;35.69;100526.17;1755569;80;21081;-79
2022/09/20 00:16:24;;;;;;;3.47;1.37;;;;;;;23.91;35.71;100526.41;1777406;80;21524;-78
2022/09/20 00:18:51;;;;;;;3.65;1.40;;;;;;;23.91;35.74;100533.94;1776605;80;21081;-79
2022/09/20 00:21:22;;;;;;;2.47;1.20;;;;;;;23.90;35.77;100525.36;1777223;80;21989;-79
2022/09/20 00:23:48;;;;;;;2.50;1.40;;;;;;;23.90;35.82;100530.34;1777584;80;21073;-79
2022/09/20 00:26:15;;;;;;;1.80;1.15;;;;;;;23.89;35.83;100529.32;1755596;80;21026;-80
2022/09/20 00:28:42;;;;;;;2.27;1.10;;;;;;;23.90;35.85;100528.14;1777551;80;21053;-79
2022/09/20 00:31:10;;;;;;;2.80;1.27;;;;;;;23.91;35.87;100538.10;1777171;80;21049;-81
2022/09/20 00:36:20;;;;;;;2.90;1.15;;;;;;;23.89;35.94;100531.49;1781571;79;21472;-79
2022/09/20 00:38:47;;;;;;;1.77;1.17;;;;;;;23.89;35.96;100528.71;1781497;80;21458;-80
2022/09/20 00:41:13;;;;;;;1.55;0.90;;;;;;;23.89;36.00;100537.05;1770865;80;21013;-79
2022/09/20 00:43:43;;;;;;;2.50;1.15;;;;;;;23.89;36.02;100537.05;1781550;79;21717;-79
2022/09/20 00:46:40;;;;;;;1.95;1.10;;;;;;;23.89;36.03;100530.10;1781724;80;21522;-79
2022/09/20 00:49:22;;;;;;;1.72;0.98;;;;;;;23.90;36.07;100533.13;1780493;79;21465;-80
2022/09/20 00:51:55;;;;;;;2.35;1.00;;;;;;;23.89;36.08;100527.93;1781134;78;21063;-80
2022/09/20 00:54:22;;;;;;;1.37;1.00;;;;;;;23.87;36.10;100526.88;1781963;80;21550;-80
2022/09/20 00:56:48;;;;;;;3.00;1.10;;;;;;;23.87;36.12;100521.31;1781728;80;21079;-79
2022/09/20 00:59:26;;;;;;;1.40;0.88;;;;;;;23.87;36.16;100524.09;1797014;79;21265;-80
2022/09/20 01:01:56;;;;;;;2.50;0.98;;;;;;;23.88;36.18;100524.91;1781119;79;21072;-80
2022/09/20 01:04:24;;;;;;;2.15;1.00;;;;;;;23.87;36.22;100524.09;1773977;79;21502;-79
2022/09/20 01:06:51;;;;;;;1.27;1.00;;;;;;;23.87;36.23;100519.12;1774195;79;21036;-80
2022/09/20 01:09:18;;;;;;;2.67;1.05;;;;;;;23.87;36.25;100519.12;1776565;80;21303;-79
2022/09/20 01:11:44;;;;;;;1.62;1.20;;;;;;;23.87;36.27;100512.17;1781041;80;21182;-79
2022/09/20 01:14:12;;;;;;;2.65;1.05;;;;;;;23.87;36.29;100516.34;1781183;79;21451;-80
2022/09/20 01:16:38;;;;;;;1.62;0.90;;;;;;;23.87;36.30;100523.28;1770174;79;21158;-80
2022/09/20 01:19:19;;;;;;;1.80;1.15;;;;;;;23.87;36.34;100517.73;1750641;79;21518;-80
2022/09/20 01:21:46;;;;;;;2.15;1.17;;;;;;;23.87;36.36;100517.16;1728822;79;21766;-79
2022/09/20 01:24:21;;;;;;;1.92;1.20;;;;;;;23.87;36.36;100517.73;1785103;78;22328;-80
2022/09/20 01:27:02;;;;;;;1.30;1.07;;;;;;;23.86;36.39;100510.55;1784752;79;21033;-78
2022/09/20 01:29:56;;;;;;;2.58;1.17;;;;;;;23.86;36.38;100506.38;1781407;80;21072;-79
2022/09/20 01:32:24;;;;;;;1.47;1.07;;;;;;;23.86;36.41;100510.55;1781686;79;21088;-80
2022/09/20 01:34:57;;;;;;;1.70;1.00;;;;;;;23.86;36.42;100508.58;1781414;80;21581;-80
2022/09/20 01:37:29;;;;;;;1.35;0.90;;;;;;;23.85;36.43;100503.39;1781718;80;21146;-79
2022/09/20 01:40:04;;;;;;;1.67;1.02;;;;;;;23.86;36.44;100502.20;1796490;79;21107;-80
2022/09/20 01:42:35;;;;;;;2.17;1.15;;;;;;;23.85;36.46;100499.22;1781500;79;21025;-80
2022/09/20 01:45:27;;;;;;;1.62;1.15;;;;;;;23.85;36.50;100504.78;1781157;79;21080;-79
2022/09/20 01:48:10;;;;;;;0.93;0.80;;;;;;;23.84;36.51;100498.41;1770449;79;21075;-79
2022/09/20 01:51:19;;;;;;;1.77;1.02;;;;;;;23.83;36.51;100491.22;1771791;79;22210;-79
2022/09/20 01:54:10;;;;;;;1.90;0.95;;;;;;;23.84;36.53;100503.15;1775380;79;21664;-79
2022/09/20 01:56:51;;;;;;;1.65;1.12;;;;;;;23.83;36.53;100497.35;1770206;79;21059;-79
2022/09/20 01:59:59;;;;;;;2.37;1.30;;;;;;;23.83;36.54;100500.13;1757605;80;24600;-79
2022/09/20 02:02:40;;;;;;;1.37;0.90;;;;;;;23.81;36.56;100490.74;1774127;78;21464;-80
2022/09/20 02:05:39;;;;;;;1.67;1.10;;;;;;;23.82;36.58;100495.73;1777199;79;21120;-79
2022/09/20 02:08:22;;;;;;;1.90;1.05;;;;;;;23.80;36.61;100497.48;1776175;79;21021;-79
2022/09/20 02:11:06;;;;;;;1.75;1.05;;;;;;;23.79;36.61;100491.69;1776197;79;21080;-79
2022/09/20 02:13:59;;;;;;;2.08;1.10;;;;;;;23.79;36.65;100492.26;1775929;79;21046;-79
2022/09/20 02:17:04;;;;;;;1.35;0.82;;;;;;;23.80;36.66;100495.28;1776265;79;21033;-79
2022/09/20 02:19:54;;;;;;;1.20;0.90;;;;;;;23.78;36.67;100491.45;1776135;80;21183;-79
2022/09/20 02:22:53;;;;;;;1.50;0.95;;;;;;;23.78;36.68;100498.97;1791267;79;21430;-79
2022/09/20 02:25:24;;;;;;;1.98;1.00;;;;;;;23.78;36.68;100501.17;1803814;79;21006;-79
2022/09/20 02:28:08;;;;;;;2.20;1.10;;;;;;;23.77;36.69;100498.73;1813568;79;21100;-79
2022/09/20 02:30:55;;;;;;;1.25;0.90;;;;;;;23.77;36.72;100500.11;1813440;78;21464;-79
2022/09/20 02:34:00;;;;;;;1.90;1.10;;;;;;;23.77;36.73;100505.67;1783812;79;22359;-79
2022/09/20 02:36:54;;;;;;;1.95;1.07;;;;;;;23.76;36.75;100506.28;1751291;79;21101;-80
2022/09/20 02:39:32;;;;;;;1.17;0.80;;;;;;;23.76;36.75;100513.80;1812947;78;21077;-79
2022/09/20 02:42:10;;;;;;;1.25;0.82;;;;;;;23.76;36.76;100513.80;1813060;78;21472;-80
2022/09/20 02:44:59;;;;;;;1.70;1.12;;;;;;;23.76;36.76;100522.13;1786774;78;21050;-79
2022/09/20 02:47:35;;;;;;;1.45;1.02;;;;;;;23.75;36.79;100515.76;1813545;78;21512;-80
2022/09/20 02:50:41;;;;;;;1.87;1.00;;;;;;;23.76;36.81;100516.58;1813591;78;21052;-79
2022/09/20 02:53:42;;;;;;;1.40;1.00;;;;;;;23.75;36.82;100521.31;1813200;78;21066;-80
2022/09/20 02:56:43;;;;;;;1.25;0.78;;;;;;;23.75;36.83;100521.31;1813686;79;21073;-80
2022/09/20 02:59:40;;;;;;;;;;;;;;;23.75;36.83;100523.28;1815322;79;21536;-79
2022/09/20 03:02:50;;;;;;;1.50;0.82;;;;;;;23.73;36.88;100523.61;1775752;80;22068;-79
2022/09/20 03:05:33;;;;;;;1.47;0.98;;;;;;;23.72;36.83;100522.59;1739543;82;21007;-79
2022/09/20 03:08:16;;;;;;;1.27;0.88;;;;;;;23.70;36.84;100513.20;1740324;82;21340;-79
2022/09/20 03:11:17;;;;;;;1.50;0.95;;;;;;;23.71;36.88;100524.55;1758731;80;21020;-79
2022/09/20 03:14:26;;;;;;;2.30;1.02;;;;;;;23.71;36.88;100523.73;1775075;80;21085;-79
2022/09/20 03:17:32;;;;;;;1.20;0.90;;;;;;;23.70;36.90;100525.70;1774414;80;21185;-79
2022/09/20 03:20:13;;;;;;;1.90;0.93;;;;;;;23.71;36.89;100531.50;1761747;80;21117;-79
2022/09/20 03:23:21;;;;;;;1.77;1.02;;;;;;;23.71;36.91;100533.45;1774627;80;21042;-79
2022/09/20 03:26:04;;;;;;;1.85;1.30;;;;;;;23.71;36.92;100530.68;1774500;80;21054;-79
2022/09/20 03:29:05;;;;;;;1.42;0.90;;;;;;;23.71;36.94;100529.30;1697522;80;21122;-78
2022/09/20 03:32:07;;;;;;;1.17;0.65;;;;;;;23.70;36.96;100529.05;1774672;80;21568;-79
2022/09/20 03:34:44;;;;;;;1.35;0.90;;;;;;;23.68;36.95;100526.03;1757642;80;21080;-79
2022/09/20 03:37:36;;;;;;;1.90;0.90;;;;;;;23.70;36.95;100536.00;1783513;80;21102;-79
2022/09/20 03:40:20;;;;;;;1.45;0.98;;;;;;;23.70;36.99;100531.83;1781121;79;21495;-79
2022/09/20 03:42:48;;;;;;;1.92;0.95;;;;;;;23.69;36.99;100528.23;1781236;79;21041;-79
2022/09/20 03:45:31;;;;;;;1.25;0.90;;;;;;;23.70;37.00;100528.48;1781215;79;21159;-79
2022/09/20 03:48:21;;;;;;;1.37;0.90;;;;;;;23.70;37.01;100529.87;1781471;79;21033;-79
2022/09/20 03:51:07;;;;;;;1.50;0.93;;;;;;;23.70;37.02;100534.61;1778101;79;20950;-79
2022/09/20 03:54:16;;;;;;;1.07;0.98;;;;;;;23.70;37.02;100536.00;1751849;80;21036;-79
2022/09/20 03:57:00;;;;;;;1.20;0.95;;;;;;;23.69;36.99;100533.80;1738573;81;21515;-79
2022/09/20 04:00:04;;;;;;;2.37;0.90;;;;;;;23.68;36.95;100547.44;1738617;81;21159;-79
2022/09/20 04:02:54;;;;;;;3.10;1.10;;;;;;;23.66;36.95;100551.97;1731525;81;21099;-78
2022/09/20 04:05:53;;;;;;;3.08;0.90;;;;;;;23.66;36.94;100556.71;1710790;82;21118;-81
2022/09/20 04:08:55;;;;;;;1.62;0.90;;;;;;;23.63;36.91;100561.58;1710078;82;21152;-79
2022/09/20 04:11:48;;;;;;;1.95;1.15;;;;;;;23.62;36.94;100560.76;1720591;82;21116;-78
2022/09/20 04:14:26;;;;;;;2.20;1.02;;;;;;;23.62;36.91;100566.89;1727420;82;21539;-79
2022/09/20 04:17:06;;;;;;;1.50;1.00;;;;;;;23.60;36.90;100558.08;1700760;83;21037;-79
2022/09/20 04:19:50;;;;;;;3.10;1.10;;;;;;;23.58;36.89;100555.66;1712489;82;21064;-79
2022/09/20 04:22:18;;;;;;;2.08;1.20;;;;;;;23.58;36.90;100557.62;1705042;82;21061;-79
2022/09/20 04:24:53;;;;;;;1.67;1.10;;;;;;;23.59;36.90;100567.59;1727656;82;21065;-80
2022/09/20 04:27:30;;;;;;;1.70;1.05;;;;;;;23.57;36.89;100567.91;1727722;83;21963;-80
2022/09/20 04:30:07;;;;;;;1.62;1.00;;;;;;;23.56;36.88;100573.23;1755948;79;21383;-80
2022/09/20 04:33:02;;;;;;;3.87;1.32;;;;;;;23.56;36.88;100566.86;1730521;81;21147;-80
2022/09/20 04:38:43;;;;;;;3.25;1.10;;;;;;;23.54;36.79;100568.61;1706024;82;21099;-80
2022/09/20 04:41:28;;;;;;;3.87;1.35;;;;;;;23.51;36.79;100565.11;1698691;81;21098;-79
2022/09/20 04:44:21;;;;;;;4.05;1.02;;;;;;;23.50;36.75;100567.67;1737035;79;21559;-80
2022/09/20 04:47:07;;;;;;;8.03;1.62;;;;;;;23.48;36.75;100571.93;1714302;80;21359;-78
2022/09/20 04:49:51;;;;;;;5.03;1.80;;;;;;;23.45;36.82;100584.55;1731459;80;21045;-77
2022/09/20 04:52:26;;;;;;;16.07;2.05;;;;;;;23.43;36.88;100586.84;1747064;78;21033;-78
2022/09/20 04:55:26;;;;;;;18.20;2.87;;;;;;;23.41;36.94;100586.36;1772534;78;21088;-79
2022/09/20 04:58:03;;;;;;;15.25;2.80;;;;;;;23.37;37.06;100584.60;1739873;80;21083;-78
2022/09/20 05:00:40;;;;;;;28.07;3.10;;;;;;;23.30;37.15;100579.59;1705966;81;21187;-80
2022/09/20 05:03:33;;;;;;;20.08;2.83;;;;;;;23.29;37.23;100580.77;1721472;81;21641;-76
2022/09/20 05:06:37;;;;;;;17.52;2.85;;;;;;;23.27;37.23;100583.63;1718654;80;21567;-78
2022/09/20 05:09:37;;;;;;;16.10;3.10;;;;;;;23.23;37.30;100592.64;1775706;78;21108;-80
2022/09/20 05:12:52;;;;;;;14.83;4.22;;;;;;;23.19;37.42;100593.09;1778588;78;21040;-80
2022/09/20 05:15:48;;;;;;;16.57;6.42;;;;;;;23.21;37.60;100601.87;1788336;77;21085;-80
2022/09/20 05:18:33;;;;;;;49.10;25.43;;;;;;;23.23;37.56;100599.58;1730210;77;21076;-79
2022/09/20 05:21:35;;;;;;;46.42;28.90;;;;;;;23.26;37.54;100598.65;1774933;79;21067;-78
2022/09/20 05:24:10;;;;;;;33.20;19.37;;;;;;;23.28;37.49;100607.46;1780081;78;21113;-79
2022/09/20 05:27:15;;;;;;;35.60;22.90;;;;;;;23.29;37.47;100612.69;1754443;78;21035;-78
2022/09/20 05:30:07;;;;;;;51.45;29.32;;;;;;;23.30;37.48;100613.50;1713712;81;21096;-78
2022/09/20 05:33:10;;;;;;;25.57;18.07;;;;;;;23.31;37.47;100610.36;1754095;78;20981;-77
2022/09/20 05:35:45;;;;;;;26.95;18.23;;;;;;;23.32;37.50;100618.12;1784257;78;20897;-79
2022/09/20 05:38:41;;;;;;;31.70;16.23;;;;;;;23.34;37.57;100616.61;1786655;78;21162;-77
2022/09/20 05:41:19;;;;;;;29.27;19.42;;;;;;;23.35;37.67;100618.25;1783708;78;21089;-77
2022/09/20 05:44:17;;;;;;;22.25;15.05;;;;;;;23.36;37.70;100623.22;1780159;78;21132;-77
2022/09/20 05:47:13;;;;;;;33.67;16.77;;;;;;;23.38;37.76;100627.88;1765419;78;21159;-77
2022/09/20 05:50:19;;;;;;;29.55;14.75;;;;;;;23.39;37.78;100631.67;1782576;78;21094;-78
2022/09/20 05:53:24;;;;;;;42.53;12.80;;;;;;;23.40;37.84;100638.05;1784510;78;21781;-80
2022/09/20 05:56:18;;;;;;;27.60;10.03;;;;;;;23.37;37.96;100635.39;1770503;78;21305;-76
2022/09/20 05:59:23;;;;;;;29.80;8.50;;;;;;;23.36;38.12;100646.25;1733172;80;21077;-76
2022/09/20 06:02:19;;;;;;;43.83;8.28;;;;;;;23.33;38.14;100642.77;1784627;78;21063;-75
2022/09/20 06:05:03;;;;;;;40.12;8.45;;;;;;;23.22;38.19;100652.64;1781921;79;21067;-78
2022/09/20 06:08:02;;;;;;;28.00;8.70;;;;;;;23.21;38.33;100651.05;1770058;79;21102;-77
2022/09/20 06:10:40;;;;;;;22.10;7.65;;;;;;;23.22;38.44;100649.87;1775034;79;21059;-78
2022/09/20 06:13:36;;;;;;;28.30;8.60;;;;;;;23.25;38.54;100657.54;1790084;78;21016;-79
2022/09/20 06:16:05;;;;;;;23.25;9.68;;;;;;;23.27;38.55;100666.33;1778486;79;21063;-79
2022/09/20 06:18:39;;;;;;;31.75;13.03;;;;;;;23.30;38.54;100665.64;1773308;79;21511;-78
2022/09/20 06:21:49;;;;;;;34.27;18.65;;;;;;;23.32;38.51;100667.52;1785770;79;21900;-79
2022/09/20 06:24:42;;;;;;;39.65;17.73;;;;;;;23.34;38.44;100674.13;1780164;78;21286;-82
2022/09/20 06:27:23;;;;;;;38.05;18.70;;;;;;;23.36;38.42;100669.84;1771957;79;21592;-78
2022/09/20 06:29:57;;;;;;;31.60;16.73;;;;;;;23.38;38.38;100672.30;1779786;79;38176;-78
2022/09/20 06:32:24;;;;;;;29.82;17.77;;;;;;;23.39;38.32;100680.27;1791982;79;21058;-82
2022/09/20 06:34:51;;;;;;;36.58;18.77;;;;;;;23.40;38.34;100672.75;1778587;79;21867;-80
2022/09/20 06:43:15;;;;;;;37.73;17.35;;;;;;;23.44;38.34;100670.38;1793518;79;21000;-82
2022/09/20 06:45:41;;;;;;;33.30;19.82;;;;;;;23.46;38.32;100681.97;1773861;79;21021;-80
2022/09/20 06:48:11;;;;;;;31.97;14.07;;;;;;;23.46;38.31;100672.25;1772129;79;21039;-74
2022/09/20 06:50:36;;;;;;;37.45;12.85;;;;;;;23.45;38.45;100685.89;1754471;79;21075;-75
2022/09/20 06:53:02;;;;;;;38.48;11.70;;;;;;;23.45;38.85;100683.69;1765141;79;21058;-75
2022/09/20 06:55:31;;;;;;;40.58;12.33;;;;;;;23.47;39.05;100685.53;1776348;78;22168;-75
2022/09/20 06:58:03;;;;;;;39.38;10.32;;;;;;;23.47;39.24;100689.70;1764219;78;21810;-75
2022/09/20 07:00:30;;;;;;;33.48;10.03;;;;;;;23.44;39.25;100690.38;1770030;79;22395;-77
2022/09/20 07:02:58;;;;;;;30.92;9.53;;;;;;;23.36;39.23;100695.41;1777967;78;21527;-79
2022/09/20 07:05:25;;;;;;;33.10;9.15;;;;;;;23.34;39.37;100692.17;1763172;78;21068;-77
2022/09/20 07:07:57;;;;;;;46.08;14.30;;;;;;;23.35;39.30;100695.16;1782266;78;21013;-77
2022/09/20 07:10:26;;;;;;;47.08;24.52;;;;;;;23.37;39.30;100695.65;1779718;78;21157;-77
2022/09/20 07:12:58;;;;;;;56.63;30.40;;;;;;;23.37;39.21;100697.86;1781280;78;21224;-76
2022/09/20 07:15:27;;;;;;;55.70;31.42;;;;;;;23.40;39.15;100700.52;1783413;78;21159;-76
2022/09/20 07:17:54;;;;;;;62.80;29.40;;;;;;;23.42;39.13;100698.23;1785052;78;21008;-76
2022/09/20 07:20:20;;;;;;;57.23;28.10;;;;;;;23.43;39.11;100697.90;1775436;78;21515;-77
2022/09/20 07:22:47;;;;;;;43.95;25.85;;;;;;;23.44;39.11;100699.53;1787984;78;21663;-76
2022/09/20 07:25:13;;;;;;;45.12;24.75;;;;;;;23.46;39.11;100703.37;1782181;77;21230;-77
2022/09/20 07:27:39;;;;;;;40.38;23.55;;;;;;;23.47;39.10;100700.80;1789882;78;21178;-77
2022/09/20 07:30:15;;;;;;;40.23;23.75;;;;;;;23.48;39.13;100701.05;1798593;77;21016;-76
2022/09/20 07:32:41;;;;;;;46.58;23.22;;;;;;;23.49;39.16;100704.06;1783099;78;21056;-77
2022/09/20 07:35:11;;;;;;;44.53;22.90;;;;;;;23.49;39.13;100702.11;1788851;78;21622;-77
2022/09/20 07:37:40;;;;;;;35.90;19.25;;;;;;;23.50;39.11;100702.35;1783318;78;21644;-79
2022/09/20 07:40:07;;;;;;;36.85;20.10;;;;;;;23.49;39.09;100697.95;1776321;77;21391;-77
2022/09/20 07:42:33;;;;;;;35.60;20.02;;;;;;;23.50;39.11;100700.97;1784294;78;21318;-78
2022/09/20 07:45:02;;;;;;;34.98;18.82;;;;;;;23.51;39.10;100706.73;1779621;78;21041;-80
2022/09/20 07:47:30;;;;;;;31.37;17.80;;;;;;;23.50;39.09;100699.58;1783853;78;21059;-79
2022/09/20 07:49:59;;;;;;;30.27;14.23;;;;;;;23.51;39.22;100701.75;1780370;79;22459;-79
2022/09/20 07:52:25;;;;;;;36.88;12.98;;;;;;;23.51;39.60;100707.30;1795492;78;21056;-76
2022/09/20 07:54:51;;;;;;;44.03;11.75;;;;;;;23.50;39.94;100705.13;1789676;78;21020;-80
2022/09/20 07:57:18;;;;;;;40.40;10.72;;;;;;;23.50;40.09;100704.31;1787354;78;21092;-78
2022/09/20 07:59:44;;;;;;;45.80;8.85;;;;;;;23.50;40.11;100707.09;1780671;78;21704;-78
2022/09/20 08:02:14;;;;;;;50.15;8.58;;;;;;;23.47;40.07;100708.56;1781569;78;21837;-79
2022/09/20 08:04:40;;;;;;;35.03;9.63;;;;;;;23.45;40.13;100706.72;1747069;79;21052;-80
2022/09/20 08:07:07;;;;;;;43.65;8.98;;;;;;;23.43;40.02;100706.23;1793787;77;21032;-81
2022/09/20 08:09:33;;;;;;;28.75;6.72;;;;;;;23.43;40.37;100702.06;1793414;77;21594;-85
2022/09/20 08:12:00;;;;;;;32.95;7.30;;;;;;;23.45;40.30;100699.77;1781782;78;21705;-80
2022/09/20 08:14:27;;;;;;;29.20;8.43;;;;;;;23.47;40.27;100706.36;1786195;77;21514;-78
2022/09/20 08:16:58;;;;;;;17.27;6.28;;;;;;;23.47;40.33;100704.97;1778156;78;21330;-80
2022/09/20 08:19:22;;;;;;;34.92;6.75;;;;;;;23.48;40.06;100701.05;1788453;77;21101;-79
2022/09/20 08:21:50;;;;;;;16.25;6.53;;;;;;;23.49;39.89;100697.13;1792492;77;21135;-78
2022/09/20 08:24:16;;;;;;;22.98;7.67;;;;;;;23.50;39.72;100696.80;1771914;78;21063;-78
2022/09/20 08:26:43;;;;;;;27.48;8.68;;;;;;;23.50;39.71;100701.53;1733761;80;21063;-79
2022/09/20 08:29:10;;;;;;;16.37;8.30;;;;;;;23.52;39.71;100699.22;1718761;81;21124;-82
2022/09/20 08:31:39;;;;;;;22.82;10.45;;;;;;;23.53;39.62;100699.46;1714564;81;21078;-81
2022/09/20 08:34:07;;;;;;;27.98;10.65;;;;;;;23.54;39.53;100690.80;1765464;78;20996;-80
2022/09/20 08:36:41;;;;;;;21.52;10.25;;;;;;;23.54;39.39;100696.35;1785149;77;21024;-79
2022/09/20 08:39:08;;;;;;;35.52;11.03;;;;;;;23.54;39.28;100689.98;1777950;78;21846;-80
2022/09/20 08:41:54;;;;;;;37.40;10.75;;;;;;;23.55;39.52;100681.29;1783082;79;21024;-79
2022/09/20 08:44:31;;;;;;;23.62;6.40;;;;;;;23.58;39.70;100682.02;1780616;77;21092;-82
2022/09/20 08:47:31;;;;;;;21.42;5.62;;;;;;;23.59;39.84;100684.22;1776183;78;21123;-78
2022/09/20 08:50:01;;;;;;;14.90;3.72;;;;;;;23.55;39.58;100677.73;1737259;80;21060;-81
2022/09/20 08:52:31;;;;;;;12.35;2.83;;;;;;;23.46;39.03;100675.03;1737796;79;21958;-79
2022/09/20 08:54:58;;;;;;;11.68;3.85;;;;;;;23.37;38.39;100680.38;1736583;80;21691;-78
2022/09/20 08:57:29;;;;;;;12.03;2.47;;;;;;;23.27;37.84;100673.27;1716158;82;21112;-77
2022/09/20 09:00:00;;;;;;;11.85;2.42;;;;;;;23.16;37.36;100672.88;1719342;81;21056;-78
2022/09/20 09:02:29;;;;;;;13.05;2.87;;;;;;;23.14;37.08;100675.16;1740847;80;21052;-77
2022/09/20 09:04:56;;;;;;;8.95;2.25;;;;;;;23.13;37.00;100681.86;1736150;80;21040;-77
2022/09/20 09:07:23;;;;;;;7.47;2.20;;;;;;;23.13;37.00;100670.75;1730177;80;21152;-78
2022/09/20 09:09:51;;;;;;;11.08;2.40;;;;;;;23.16;37.02;100674.83;1740875;80;21080;-77
2022/09/20 09:12:25;;;;;;;10.63;2.42;;;;;;;23.21;36.81;100670.47;1721284;80;21123;-78
2022/09/20 09:15:06;;;;;;;8.78;2.37;;;;;;;23.22;36.66;100670.69;1734207;80;21041;-78
2022/09/20 09:17:32;;;;;;;6.37;2.02;;;;;;;23.25;36.60;100663.66;1735000;81;21791;-77
2022/09/20 09:20:20;;;;;;;5.55;2.17;;;;;;;23.29;36.56;100653.50;1731229;79;21048;-77
2022/09/20 09:23:05;;;;;;;8.53;2.33;;;;;;;23.32;36.47;100661.15;1735712;80;21069;-77
2022/09/20 09:25:37;;;;;;;11.00;2.40;;;;;;;23.35;36.35;100663.23;1734440;81;21880;-76
2022/09/20 09:28:13;;;;;;;6.58;2.05;;;;;;;23.37;36.14;100660.95;1726053;82;21451;-75
2022/09/20 09:30:45;;;;;;;8.40;2.45;;;;;;;23.37;35.94;100660.37;1733063;82;21092;-76
2022/09/20 09:33:27;;;;;;;7.03;2.20;;;;;;;23.39;35.71;100651.11;1793807;79;21025;-75
2022/09/20 09:36:07;;;;;;;5.67;2.02;;;;;;;23.39;35.59;100649.72;1722692;82;21589;-76
2022/09/20 09:38:36;;;;;;;7.80;2.50;;;;;;;23.42;35.63;100642.70;1739115;80;21075;-75
2022/09/20 09:41:07;;;;;;;7.08;2.40;;;;;;;23.42;35.63;100642.70;1729960;82;21784;-75
2022/09/20 09:43:36;;;;;;;6.78;2.27;;;;;;;23.44;35.38;100640.41;1739065;80;21349;-75
2022/09/20 09:46:22;;;;;;;5.00;2.02;;;;;;;23.44;35.36;100641.80;1749861;80;20897;-75
2022/09/20 09:49:19;;;;;;;7.83;1.87;;;;;;;23.46;35.31;100641.70;1729599;80;20951;-75
2022/09/20 09:52:17;;;;;;;9.78;2.47;;;;;;;23.47;35.22;100650.25;1725641;81;22091;-76
2022/09/20 09:54:47;;;;;;;26.00;2.22;;;;;;;23.47;35.16;100641.11;1726140;80;21209;-75
2022/09/20 09:57:41;;;;;;;18.25;2.35;;;;;;;23.45;35.17;100635.91;1732474;81;21185;-76
2022/09/20 10:00:18;;;;;;;9.53;1.60;;;;;;;23.46;35.18;100634.77;1714904;83;21161;-77
2022/09/20 10:03:15;;;;;;;12.65;2.33;;;;;;;23.46;35.01;100636.16;1740576;81;21081;-75
2022/09/20 10:06:11;;;;;;;12.45;2.12;;;;;;;23.45;34.88;100645.62;1720869;82;21065;-77
2022/09/20 10:09:10;;;;;;;8.18;1.55;;;;;;;23.45;34.60;100642.85;1671946;83;21145;-76
2022/09/20 10:12:16;;;;;;;4.60;1.32;;;;;;;23.43;34.46;100640.98;1637362;84;21167;-76
2022/09/20 10:15:26;;;;;;;10.10;1.47;;;;;;;23.42;34.19;100637.14;1677394;83;21430;-75
2022/09/20 10:18:19;;;;;;;4.03;1.20;;;;;;;23.40;34.11;100636.09;1646818;85;21094;-76
2022/09/20 10:21:18;;;;;;;3.50;1.00;;;;;;;23.40;34.00;100634.70;1628866;84;21213;-75
2022/09/20 10:24:34;;;;;;;3.77;0.85;;;;;;;23.38;33.83;100636.98;1671020;83;21101;-76
2022/09/20 10:27:22;;;;;;;4.22;0.80;;;;;;;23.37;33.63;100632.61;1677041;83;21910;-78
2022/09/20 10:30:13;;;;;;;10.05;1.20;;;;;;;23.37;33.42;100638.73;1681285;84;21404;-75
2022/09/20 10:33:04;;;;;;;1.17;0.70;;;;;;;23.34;33.24;100630.49;1673990;83;21113;-76
2022/09/20 10:36:08;;;;;;;1.85;0.90;;;;;;;23.35;33.10;100628.53;1660308;85;21569;-76
2022/09/20 10:38:58;;;;;;;1.20;0.62;;;;;;;23.34;32.97;100619.99;1661336;83;21117;-76
2022/09/20 10:44:52;;;;;;;1.10;0.60;;;;;;;23.33;32.72;100610.85;1652038;84;21202;-76
2022/09/20 10:47:20;;;;;;;3.35;0.80;;;;;;;23.35;32.65;100609.10;1665607;83;21089;-76
2022/09/20 10:49:59;;;;;;;1.32;0.80;;;;;;;23.34;32.50;100613.84;1669977;84;21090;-75
2022/09/20 10:52:58;;;;;;;3.50;0.82;;;;;;;23.35;32.43;100614.66;1662267;84;21200;-75
2022/09/20 10:55:53;;;;;;;6.85;0.88;;;;;;;23.32;32.41;100613.95;1665418;83;21494;-75
2022/09/20 10:58:58;;;;;;;17.07;1.50;;;;;;;23.30;32.63;100614.28;1657686;84;21103;-76
2022/09/20 11:01:44;;;;;;;15.20;2.08;;;;;;;23.32;32.85;100612.00;1677341;83;21102;-77
2022/09/20 11:04:37;;;;;;;18.27;3.00;;;;;;;23.33;32.96;100611.42;1651739;84;21685;-76
2022/09/20 11:07:18;;;;;;;27.60;2.85;;;;;;;23.31;32.93;100604.81;1670143;84;22471;-75
2022/09/20 11:10:01;;;;;;;29.42;4.95;;;;;;;23.31;33.07;100604.00;1630884;84;21209;-75
2022/09/20 11:12:41;;;;;;;14.45;3.17;;;;;;;23.30;32.99;100596.23;1672129;84;21106;-75
2022/09/20 11:15:22;;;;;;;15.83;3.73;;;;;;;23.30;32.86;100589.30;1668666;84;21089;-75
2022/09/20 11:18:02;;;;;;;17.60;3.52;;;;;;;23.31;32.67;100599.83;1666700;84;21174;-75
2022/09/20 11:20:34;;;;;;;12.23;2.37;;;;;;;23.31;32.59;100596.48;1667967;84;21103;-76
2022/09/20 11:23:11;;;;;;;6.78;1.22;;;;;;;23.31;32.45;100590.93;1676421;84;22019;-75
2022/09/20 11:25:50;;;;;;;6.50;1.30;;;;;;;23.27;32.24;100582.23;1661939;84;21083;-74
2022/09/20 11:28:36;;;;;;;2.90;1.02;;;;;;;23.27;32.00;100589.17;1660796;84;21098;-75
2022/09/20 11:31:16;;;;;;;3.67;0.90;;;;;;;23.25;31.92;100584.56;1650431;84;21109;-75
2022/09/20 11:34:17;;;;;;;2.47;0.90;;;;;;;23.27;31.96;100589.99;1663520;84;21121;-75
2022/09/20 11:36:58;;;;;;;3.72;0.70;;;;;;;23.27;31.82;100581.66;1662574;84;21181;-75
2022/09/20 11:39:45;;;;;;;4.62;1.00;;;;;;;23.28;31.90;100576.36;1659986;84;21075;-75
2022/09/20 11:42:20;;;;;;;2.27;0.80;;;;;;;23.29;31.83;100577.17;1684212;84;21064;-74
2022/09/20 11:44:52;;;;;;;4.97;0.70;;;;;;;23.29;31.82;100573.82;1677751;84;21095;-77
2022/09/20 11:47:24;;;;;;;5.20;0.90;;;;;;;23.30;31.79;100572.64;1635972;86;21122;-76
2022/09/20 11:49:56;;;;;;;5.62;1.40;;;;;;;23.32;31.79;100574.52;1650029;85;21083;-76
2022/09/20 11:53:03;;;;;;;15.65;5.03;;;;;;;23.35;31.74;100579.95;1681091;84;21313;-76
2022/09/20 11:56:06;;;;;;;4.35;1.75;;;;;;;23.35;31.73;100573.02;1683017;84;21146;-76
2022/09/20 11:58:48;;;;;;;18.67;1.95;;;;;;;23.35;32.01;100571.05;1666931;84;21151;-76
2022/09/20 12:01:19;;;;;;;32.45;2.40;;;;;;;23.34;32.04;100568.03;1671841;84;21150;-77
2022/09/20 12:03:45;;;;;;;;;;;;;;;23.35;32.00;100571.63;1637891;84;21499;-77
2022/09/20 12:06:34;;;;;;;15.00;2.17;;;;;;;23.32;31.95;100565.38;1657384;84;20171;-76
2022/09/20 12:09:07;;;;;;;21.15;2.05;;;;;;;23.30;32.14;100559.37;1685742;84;21074;-75
2022/09/20 12:11:37;;;;;;;14.65;2.05;;;;;;;23.29;32.17;100559.94;1673068;83;21110;-75
2022/09/20 12:14:19;;;;;;;11.43;2.30;;;;;;;23.30;32.16;100560.76;1649506;85;21352;-75
2022/09/20 12:16:47;;;;;;;18.60;2.70;;;;;;;23.30;32.12;100561.54;1668877;84;22025;-74
2022/09/20 12:19:35;;;;;;;7.97;2.62;;;;;;;23.31;32.08;100560.39;1644657;85;21164;-75
2022/09/20 12:22:10;;;;;;;10.23;2.85;;;;;;;23.33;32.01;100562.27;1662296;85;21746;-76
2022/09/20 12:24:41;;;;;;;7.92;2.65;;;;;;;23.34;31.95;100554.75;1638252;85;21653;-75
2022/09/20 12:27:26;;;;;;;6.15;2.65;;;;;;;23.34;31.88;100555.54;1677878;84;21130;-75
2022/09/20 12:30:06;;;;;;;6.85;2.42;;;;;;;23.35;31.79;100558.56;1666195;84;21866;-75
2022/09/20 12:32:50;;;;;;;5.50;1.70;;;;;;;23.35;31.71;100558.56;1666982;83;21605;-75
2022/09/20 12:35:44;;;;;;;7.50;2.37;;;;;;;23.36;31.62;100557.98;1679885;83;21598;-75
2022/09/20 12:38:29;;;;;;;4.33;1.90;;;;;;;23.36;31.51;100559.37;1649341;84;21608;-75
2022/09/20 12:41:10;;;;;;;9.95;2.17;;;;;;;23.36;31.41;100551.05;1641045;86;21056;-75